sensor_id;sensor_type;location;lat;lon;timestamp;P1;durP1;ratioP1;P2;durP2;ratioP2
64868;SDS011;51349;52.424;10.840;2023-03-23T00:01:54;2.25;;;1.30;;
64868;SDS011;51349;52.424;10.840;2023-03-23T00:06:55;2.17;;;1.40;;
64868;SDS011;51349;52.424;10.840;2023-03-23T00:11:56;1.30;;;1.27;;
64868;SDS011;51349;52.424;10.840;2023-03-23T00:17:04;2.55;;;1.50;;
64868;SDS011;51349;52.424;10.840;2023-03-23T00:22:05;1.92;;;1.75;;
64868;SDS011;51349;52.424;10.840;2023-03-23T00:27:06;1999.90;;;999.90;;
64868;SDS011;51349;52.424;10.840;2023-03-23T00:32:08;1999.90;;;999.90;;
64868;SDS011;51349;52.424;10.840;2023-03-23T00:37:17;1999.90;;;999.90;;
64868;SDS011;51349;52.424;10.840;2023-03-23T00:42:18;1999.90;;;999.90;;
64868;SDS011;51349;52.424;10.840;2023-03-23T00:47:18;1999.90;;;999.90;;
64868;SDS011;51349;52.424;10.840;2023-03-23T00:52:19;1999.90;;;999.90;;
64868;SDS011;51349;52.424;10.840;2023-03-23T00:57:20;1.60;;;1.10;;
64868;SDS011;51349;52.424;10.840;2023-03-23T01:02:24;1.95;;;1.30;;
64868;SDS011;51349;52.424;10.840;2023-03-23T01:07:24;1.83;;;1.33;;
64868;SDS011;51349;52.424;10.840;2023-03-23T01:12:28;2.20;;;1.60;;
64868;SDS011;51349;52.424;10.840;2023-03-23T01:17:28;1.83;;;1.65;;
64868;SDS011;51349;52.424;10.840;2023-03-23T01:22:29;1.80;;;1.60;;
64868;SDS011;51349;52.424;10.840;2023-03-23T01:27:32;2.33;;;2.10;;
64868;SDS011;51349;52.424;10.840;2023-03-23T01:32:33;3.08;;;1.73;;
64868;SDS011;51349;52.424;10.840;2023-03-23T01:37:34;1.65;;;1.55;;
64868;SDS011;51349;52.424;10.840;2023-03-23T01:42:37;2.83;;;1.90;;
64868;SDS011;51349;52.424;10.840;2023-03-23T01:47:38;1.85;;;1.75;;
64868;SDS011;51349;52.424;10.840;2023-03-23T01:52:39;2.05;;;1.85;;
64868;SDS011;51349;52.424;10.840;2023-03-23T01:57:40;2.65;;;1.73;;
64868;SDS011;51349;52.424;10.840;2023-03-23T02:02:43;1.70;;;1.50;;
64868;SDS011;51349;52.424;10.840;2023-03-23T02:07:46;1.77;;;1.67;;
64868;SDS011;51349;52.424;10.840;2023-03-23T02:12:48;2.55;;;1.60;;
64868;SDS011;51349;52.424;10.840;2023-03-23T02:17:52;2.17;;;1.70;;
64868;SDS011;51349;52.424;10.840;2023-03-23T02:23:14;2.30;;;2.10;;
64868;SDS011;51349;52.424;10.840;2023-03-23T02:39:01;2.40;;;2.20;;
64868;SDS011;51349;52.424;10.840;2023-03-23T02:44:06;2.55;;;2.25;;
64868;SDS011;51349;52.424;10.840;2023-03-23T02:49:08;2.30;;;2.10;;
64868;SDS011;51349;52.424;10.840;2023-03-23T02:54:13;3.20;;;2.05;;
64868;SDS011;51349;52.424;10.840;2023-03-23T02:59:16;3.65;;;2.00;;
64868;SDS011;51349;52.424;10.840;2023-03-23T03:04:18;3.88;;;2.17;;
64868;SDS011;51349;52.424;10.840;2023-03-23T03:14:42;2.97;;;1.80;;
64868;SDS011;51349;52.424;10.840;2023-03-23T03:19:58;2.00;;;1.90;;
64868;SDS011;51349;52.424;10.840;2023-03-23T03:25:10;2.40;;;1.88;;
64868;SDS011;51349;52.424;10.840;2023-03-23T03:30:13;2.63;;;2.10;;
64868;SDS011;51349;52.424;10.840;2023-03-23T03:35:17;2.10;;;2.00;;
64868;SDS011;51349;52.424;10.840;2023-03-23T03:40:19;2.22;;;1.98;;
64868;SDS011;51349;52.424;10.840;2023-03-23T03:45:21;2.28;;;2.10;;
64868;SDS011;51349;52.424;10.840;2023-03-23T03:50:22;2.42;;;1.92;;
64868;SDS011;51349;52.424;10.840;2023-03-23T03:55:23;2.17;;;1.98;;
64868;SDS011;51349;52.424;10.840;2023-03-23T04:00:24;1.92;;;1.73;;
64868;SDS011;51349;52.424;10.840;2023-03-23T04:05:25;1.77;;;1.45;;
64868;SDS011;51349;52.424;10.840;2023-03-23T04:10:29;2.05;;;1.60;;
64868;SDS011;51349;52.424;10.840;2023-03-23T04:15:30;2.15;;;1.88;;
64868;SDS011;51349;52.424;10.840;2023-03-23T04:20:31;2.50;;;2.30;;
64868;SDS011;51349;52.424;10.840;2023-03-23T04:25:34;2.28;;;2.08;;
64868;SDS011;51349;52.424;10.840;2023-03-23T04:30:36;3.72;;;2.30;;
64868;SDS011;51349;52.424;10.840;2023-03-23T04:35:36;2.40;;;2.20;;
64868;SDS011;51349;52.424;10.840;2023-03-23T04:40:41;2.58;;;2.38;;
64868;SDS011;51349;52.424;10.840;2023-03-23T04:45:43;5.93;;;2.70;;
64868;SDS011;51349;52.424;10.840;2023-03-23T04:50:45;2.65;;;2.20;;
64868;SDS011;51349;52.424;10.840;2023-03-23T04:55:48;3.63;;;2.25;;
64868;SDS011;51349;52.424;10.840;2023-03-23T05:00:49;2.65;;;2.00;;
64868;SDS011;51349;52.424;10.840;2023-03-23T05:05:53;2.47;;;2.20;;
64868;SDS011;51349;52.424;10.840;2023-03-23T05:10:55;2.35;;;1.95;;
64868;SDS011;51349;52.424;10.840;2023-03-23T05:15:57;2.55;;;2.33;;
64868;SDS011;51349;52.424;10.840;2023-03-23T05:21:01;2.25;;;2.05;;
64868;SDS011;51349;52.424;10.840;2023-03-23T05:26:02;2.17;;;2.03;;
64868;SDS011;51349;52.424;10.840;2023-03-23T05:31:03;2.22;;;2.13;;
64868;SDS011;51349;52.424;10.840;2023-03-23T05:36:04;2.67;;;2.10;;
64868;SDS011;51349;52.424;10.840;2023-03-23T05:41:06;1.95;;;1.83;;
64868;SDS011;51349;52.424;10.840;2023-03-23T05:46:07;1.80;;;1.70;;
64868;SDS011;51349;52.424;10.840;2023-03-23T05:51:12;1.98;;;1.88;;
64868;SDS011;51349;52.424;10.840;2023-03-23T05:56:13;2.80;;;1.88;;
64868;SDS011;51349;52.424;10.840;2023-03-23T06:01:14;3.85;;;1.98;;
64868;SDS011;51349;52.424;10.840;2023-03-23T06:06:16;1.95;;;1.80;;
64868;SDS011;51349;52.424;10.840;2023-03-23T06:11:17;1.70;;;1.60;;
64868;SDS011;51349;52.424;10.840;2023-03-23T06:16:18;1.90;;;1.80;;
64868;SDS011;51349;52.424;10.840;2023-03-23T06:21:19;2.15;;;1.90;;
64868;SDS011;51349;52.424;10.840;2023-03-23T06:26:23;2.97;;;2.13;;
64868;SDS011;51349;52.424;10.840;2023-03-23T06:31:28;2.00;;;1.90;;
64868;SDS011;51349;52.424;10.840;2023-03-23T06:36:29;1.75;;;1.65;;
64868;SDS011;51349;52.424;10.840;2023-03-23T06:41:32;1.73;;;1.63;;
64868;SDS011;51349;52.424;10.840;2023-03-23T06:46:33;2.10;;;1.90;;
64868;SDS011;51349;52.424;10.840;2023-03-23T06:51:34;2.30;;;2.10;;
64868;SDS011;51349;52.424;10.840;2023-03-23T06:56:35;1.77;;;1.67;;
64868;SDS011;51349;52.424;10.840;2023-03-23T07:01:36;2.35;;;1.55;;
64868;SDS011;51349;52.424;10.840;2023-03-23T07:06:36;2.25;;;1.30;;
64868;SDS011;51349;52.424;10.840;2023-03-23T07:11:37;1.50;;;1.42;;
64868;SDS011;51349;52.424;10.840;2023-03-23T07:16:38;1.90;;;1.38;;
64868;SDS011;51349;52.424;10.840;2023-03-23T07:21:39;2.15;;;1.48;;
64868;SDS011;51349;52.424;10.840;2023-03-23T07:26:40;1.52;;;1.40;;
64868;SDS011;51349;52.424;10.840;2023-03-23T07:31:41;1.15;;;1.15;;
64868;SDS011;51349;52.424;10.840;2023-03-23T07:36:42;1.08;;;1.08;;
64868;SDS011;51349;52.424;10.840;2023-03-23T07:41:43;1.85;;;1.33;;
64868;SDS011;51349;52.424;10.840;2023-03-23T07:46:44;1.52;;;1.42;;
64868;SDS011;51349;52.424;10.840;2023-03-23T07:51:45;1.50;;;1.40;;
64868;SDS011;51349;52.424;10.840;2023-03-23T07:56:46;2.63;;;1.60;;
64868;SDS011;51349;52.424;10.840;2023-03-23T08:01:47;2.30;;;2.08;;
64868;SDS011;51349;52.424;10.840;2023-03-23T08:06:47;1.38;;;1.27;;
64868;SDS011;51349;52.424;10.840;2023-03-23T08:11:48;2.25;;;1.77;;
64868;SDS011;51349;52.424;10.840;2023-03-23T08:16:49;2.33;;;1.98;;
64868;SDS011;51349;52.424;10.840;2023-03-23T08:21:49;2.78;;;1.70;;
64868;SDS011;51349;52.424;10.840;2023-03-23T08:26:50;1.85;;;1.75;;
64868;SDS011;51349;52.424;10.840;2023-03-23T08:31:51;1.42;;;1.35;;
64868;SDS011;51349;52.424;10.840;2023-03-23T08:36:52;2.53;;;1.73;;
64868;SDS011;51349;52.424;10.840;2023-03-23T08:41:53;4.43;;;2.10;;
64868;SDS011;51349;52.424;10.840;2023-03-23T08:46:54;2.22;;;1.60;;
64868;SDS011;51349;52.424;10.840;2023-03-23T08:51:56;1.55;;;1.45;;
64868;SDS011;51349;52.424;10.840;2023-03-23T08:57:01;2.72;;;1.63;;
64868;SDS011;51349;52.424;10.840;2023-03-23T09:02:02;1.92;;;1.73;;
64868;SDS011;51349;52.424;10.840;2023-03-23T09:07:03;1.85;;;1.70;;
64868;SDS011;51349;52.424;10.840;2023-03-23T09:12:04;1.77;;;1.60;;
64868;SDS011;51349;52.424;10.840;2023-03-23T09:17:05;3.17;;;1.65;;
64868;SDS011;51349;52.424;10.840;2023-03-23T09:22:07;1.67;;;1.52;;
64868;SDS011;51349;52.424;10.840;2023-03-23T09:27:08;1.50;;;1.40;;
64868;SDS011;51349;52.424;10.840;2023-03-23T09:32:09;1.60;;;1.50;;
64868;SDS011;51349;52.424;10.840;2023-03-23T09:37:10;1.80;;;1.52;;
64868;SDS011;51349;52.424;10.840;2023-03-23T09:52:54;1.85;;;1.40;;
64868;SDS011;51349;52.424;10.840;2023-03-23T10:03:16;2.45;;;1.70;;
64868;SDS011;51349;52.424;10.840;2023-03-23T10:08:21;2.58;;;1.38;;
64868;SDS011;51349;52.424;10.840;2023-03-23T10:18:38;1.40;;;1.30;;
64868;SDS011;51349;52.424;10.840;2023-03-23T10:24:00;1.48;;;1.38;;
64868;SDS011;51349;52.424;10.840;2023-03-23T10:34:11;1.60;;;1.50;;
64868;SDS011;51349;52.424;10.840;2023-03-23T10:39:20;2.03;;;1.42;;
64868;SDS011;51349;52.424;10.840;2023-03-23T10:44:24;1.70;;;1.60;;
64868;SDS011;51349;52.424;10.840;2023-03-23T10:49:27;2.20;;;1.60;;
64868;SDS011;51349;52.424;10.840;2023-03-23T10:54:37;2.35;;;1.50;;
64868;SDS011;51349;52.424;10.840;2023-03-23T10:59:50;2.17;;;1.98;;
64868;SDS011;51349;52.424;10.840;2023-03-23T11:05:01;4.97;;;2.00;;
64868;SDS011;51349;52.424;10.840;2023-03-23T11:10:07;1.60;;;1.50;;
64868;SDS011;51349;52.424;10.840;2023-03-23T11:15:28;2.08;;;1.73;;
64868;SDS011;51349;52.424;10.840;2023-03-23T11:20:35;3.47;;;1.80;;
64868;SDS011;51349;52.424;10.840;2023-03-23T11:26:03;2.22;;;1.63;;
64868;SDS011;51349;52.424;10.840;2023-03-23T11:31:09;2.58;;;1.67;;
64868;SDS011;51349;52.424;10.840;2023-03-23T11:36:11;3.08;;;1.70;;
64868;SDS011;51349;52.424;10.840;2023-03-23T11:41:16;2.63;;;1.77;;
64868;SDS011;51349;52.424;10.840;2023-03-23T11:47:04;4.57;;;1.98;;
64868;SDS011;51349;52.424;10.840;2023-03-23T11:56:50;6.00;;;2.10;;
64868;SDS011;51349;52.424;10.840;2023-03-23T12:01:53;4.68;;;2.00;;
64868;SDS011;51349;52.424;10.840;2023-03-23T12:07:05;3.05;;;1.60;;
64868;SDS011;51349;52.424;10.840;2023-03-23T12:23:24;3.33;;;1.75;;
64868;SDS011;51349;52.424;10.840;2023-03-23T12:44:47;2.95;;;1.70;;
64868;SDS011;51349;52.424;10.840;2023-03-23T12:49:56;2.30;;;1.73;;
64868;SDS011;51349;52.424;10.840;2023-03-23T13:00:17;3.40;;;1.70;;
64868;SDS011;51349;52.424;10.840;2023-03-23T13:05:54;1.75;;;1.52;;
64868;SDS011;51349;52.424;10.840;2023-03-23T13:22:04;2.97;;;1.70;;
64868;SDS011;51349;52.424;10.840;2023-03-23T13:27:10;2.20;;;1.80;;
64868;SDS011;51349;52.424;10.840;2023-03-23T13:32:15;3.53;;;1.95;;
64868;SDS011;51349;52.424;10.840;2023-03-23T13:42:20;3.20;;;2.03;;
64868;SDS011;51349;52.424;10.840;2023-03-23T13:52:35;2.83;;;1.40;;
64868;SDS011;51349;52.424;10.840;2023-03-23T13:57:48;1.67;;;1.58;;
64868;SDS011;51349;52.424;10.840;2023-03-23T14:13:32;2.70;;;1.83;;
64868;SDS011;51349;52.424;10.840;2023-03-23T14:18:40;5.13;;;1.63;;
64868;SDS011;51349;52.424;10.840;2023-03-23T14:23:47;2.08;;;1.70;;
64868;SDS011;51349;52.424;10.840;2023-03-23T14:28:50;2.40;;;1.50;;
64868;SDS011;51349;52.424;10.840;2023-03-23T14:33:53;1.45;;;1.20;;
64868;SDS011;51349;52.424;10.840;2023-03-23T14:44:00;1.52;;;1.02;;
64868;SDS011;51349;52.424;10.840;2023-03-23T14:49:02;1.77;;;0.90;;
64868;SDS011;51349;52.424;10.840;2023-03-23T14:54:08;0.47;;;0.47;;
64868;SDS011;51349;52.424;10.840;2023-03-23T14:59:10;0.60;;;0.60;;
64868;SDS011;51349;52.424;10.840;2023-03-23T15:04:12;1.08;;;0.80;;
64868;SDS011;51349;52.424;10.840;2023-03-23T15:09:22;0.60;;;0.60;;
64868;SDS011;51349;52.424;10.840;2023-03-23T15:14:25;2.92;;;1.02;;
64868;SDS011;51349;52.424;10.840;2023-03-23T15:19:35;1.40;;;0.90;;
64868;SDS011;51349;52.424;10.840;2023-03-23T15:24:38;0.80;;;0.80;;
64868;SDS011;51349;52.424;10.840;2023-03-23T15:35:35;0.98;;;0.88;;
64868;SDS011;51349;52.424;10.840;2023-03-23T15:40:38;1.67;;;1.00;;
64868;SDS011;51349;52.424;10.840;2023-03-23T15:45:39;1.65;;;1.30;;
64868;SDS011;51349;52.424;10.840;2023-03-23T15:50:50;1.65;;;1.40;;
64868;SDS011;51349;52.424;10.840;2023-03-23T15:55:51;2.15;;;1.52;;
64868;SDS011;51349;52.424;10.840;2023-03-23T16:00:53;1.83;;;1.63;;
64868;SDS011;51349;52.424;10.840;2023-03-23T16:05:54;1.10;;;1.00;;
64868;SDS011;51349;52.424;10.840;2023-03-23T16:10:56;1.50;;;1.20;;
64868;SDS011;51349;52.424;10.840;2023-03-23T16:15:57;1.50;;;1.15;;
64868;SDS011;51349;52.424;10.840;2023-03-23T16:20:58;1.20;;;1.20;;
64868;SDS011;51349;52.424;10.840;2023-03-23T16:25:59;2.20;;;1.30;;
64868;SDS011;51349;52.424;10.840;2023-03-23T16:31:00;1.65;;;1.55;;
64868;SDS011;51349;52.424;10.840;2023-03-23T16:36:01;2.28;;;1.63;;
64868;SDS011;51349;52.424;10.840;2023-03-23T16:41:05;2.25;;;1.95;;
64868;SDS011;51349;52.424;10.840;2023-03-23T16:46:08;2.53;;;2.05;;
64868;SDS011;51349;52.424;10.840;2023-03-23T16:51:11;1.63;;;1.45;;
64868;SDS011;51349;52.424;10.840;2023-03-23T16:56:12;1.50;;;1.40;;
64868;SDS011;51349;52.424;10.840;2023-03-23T17:01:12;2.63;;;1.65;;
64868;SDS011;51349;52.424;10.840;2023-03-23T17:06:13;2.35;;;1.90;;
64868;SDS011;51349;52.424;10.840;2023-03-23T17:11:14;2.60;;;2.40;;
64868;SDS011;51349;52.424;10.840;2023-03-23T17:16:15;3.53;;;2.50;;
64868;SDS011;51349;52.424;10.840;2023-03-23T17:21:15;1.90;;;1.80;;
64868;SDS011;51349;52.424;10.840;2023-03-23T17:26:16;2.00;;;1.80;;
64868;SDS011;51349;52.424;10.840;2023-03-23T17:31:17;1.92;;;1.83;;
64868;SDS011;51349;52.424;10.840;2023-03-23T17:36:18;2.45;;;2.25;;
64868;SDS011;51349;52.424;10.840;2023-03-23T17:41:19;2.78;;;1.52;;
64868;SDS011;51349;52.424;10.840;2023-03-23T17:46:20;2.15;;;1.90;;
64868;SDS011;51349;52.424;10.840;2023-03-23T17:51:21;2.05;;;1.95;;
64868;SDS011;51349;52.424;10.840;2023-03-23T17:56:21;2.42;;;2.05;;
64868;SDS011;51349;52.424;10.840;2023-03-23T18:01:22;2.80;;;2.50;;
64868;SDS011;51349;52.424;10.840;2023-03-23T18:06:23;2.65;;;1.92;;
64868;SDS011;51349;52.424;10.840;2023-03-23T18:11:24;2.35;;;2.15;;
64868;SDS011;51349;52.424;10.840;2023-03-23T18:16:26;3.05;;;2.17;;
64868;SDS011;51349;52.424;10.840;2023-03-23T18:21:26;2.55;;;1.80;;
64868;SDS011;51349;52.424;10.840;2023-03-23T18:26:29;2.17;;;1.90;;
64868;SDS011;51349;52.424;10.840;2023-03-23T18:31:30;3.22;;;2.08;;
64868;SDS011;51349;52.424;10.840;2023-03-23T18:36:31;2.28;;;1.95;;
64868;SDS011;51349;52.424;10.840;2023-03-23T18:41:33;2.85;;;2.08;;
64868;SDS011;51349;52.424;10.840;2023-03-23T18:46:33;2.30;;;2.10;;
64868;SDS011;51349;52.424;10.840;2023-03-23T18:51:36;2.53;;;2.33;;
64868;SDS011;51349;52.424;10.840;2023-03-23T18:56:37;3.80;;;2.47;;
64868;SDS011;51349;52.424;10.840;2023-03-23T19:01:37;2.88;;;2.63;;
64868;SDS011;51349;52.424;10.840;2023-03-23T19:06:38;2.50;;;2.30;;
64868;SDS011;51349;52.424;10.840;2023-03-23T19:11:39;2.50;;;2.30;;
64868;SDS011;51349;52.424;10.840;2023-03-23T19:16:39;3.08;;;2.78;;
64868;SDS011;51349;52.424;10.840;2023-03-23T19:21:40;2.95;;;2.70;;
64868;SDS011;51349;52.424;10.840;2023-03-23T19:26:43;4.07;;;3.10;;
64868;SDS011;51349;52.424;10.840;2023-03-23T19:31:45;2.72;;;2.53;;
64868;SDS011;51349;52.424;10.840;2023-03-23T19:36:46;3.03;;;2.60;;
64868;SDS011;51349;52.424;10.840;2023-03-23T19:41:48;2.90;;;2.70;;
64868;SDS011;51349;52.424;10.840;2023-03-23T19:46:49;2.85;;;2.65;;
64868;SDS011;51349;52.424;10.840;2023-03-23T19:51:50;2.60;;;2.40;;
64868;SDS011;51349;52.424;10.840;2023-03-23T19:56:51;3.15;;;2.55;;
64868;SDS011;51349;52.424;10.840;2023-03-23T20:01:52;2.83;;;2.63;;
64868;SDS011;51349;52.424;10.840;2023-03-23T20:06:53;3.40;;;3.10;;
64868;SDS011;51349;52.424;10.840;2023-03-23T20:11:55;2.88;;;2.58;;
64868;SDS011;51349;52.424;10.840;2023-03-23T20:16:56;3.08;;;2.78;;
64868;SDS011;51349;52.424;10.840;2023-03-23T20:21:56;3.22;;;2.92;;
64868;SDS011;51349;52.424;10.840;2023-03-23T20:26:57;3.50;;;3.20;;
64868;SDS011;51349;52.424;10.840;2023-03-23T20:32:00;3.40;;;3.10;;
64868;SDS011;51349;52.424;10.840;2023-03-23T20:37:01;4.88;;;3.20;;
64868;SDS011;51349;52.424;10.840;2023-03-23T20:42:02;3.33;;;2.92;;
64868;SDS011;51349;52.424;10.840;2023-03-23T20:47:05;3.40;;;3.10;;
64868;SDS011;51349;52.424;10.840;2023-03-23T20:52:07;3.50;;;3.20;;
64868;SDS011;51349;52.424;10.840;2023-03-23T20:57:10;5.55;;;4.03;;
64868;SDS011;51349;52.424;10.840;2023-03-23T21:02:13;3.92;;;3.28;;
64868;SDS011;51349;52.424;10.840;2023-03-23T21:07:15;3.22;;;2.85;;
64868;SDS011;51349;52.424;10.840;2023-03-23T21:12:17;3.35;;;3.00;;
64868;SDS011;51349;52.424;10.840;2023-03-23T21:17:17;3.40;;;2.67;;
64868;SDS011;51349;52.424;10.840;2023-03-23T21:22:18;4.22;;;3.80;;
64868;SDS011;51349;52.424;10.840;2023-03-23T21:27:19;5.07;;;2.70;;
64868;SDS011;51349;52.424;10.840;2023-03-23T21:32:20;3.22;;;3.00;;
64868;SDS011;51349;52.424;10.840;2023-03-23T21:37:20;3.30;;;3.00;;
64868;SDS011;51349;52.424;10.840;2023-03-23T21:42:21;4.30;;;3.72;;
64868;SDS011;51349;52.424;10.840;2023-03-23T21:47:29;3.25;;;2.80;;
64868;SDS011;51349;52.424;10.840;2023-03-23T21:52:30;3.17;;;2.97;;
64868;SDS011;51349;52.424;10.840;2023-03-23T21:57:32;4.40;;;2.88;;
64868;SDS011;51349;52.424;10.840;2023-03-23T22:02:33;3.92;;;3.40;;
64868;SDS011;51349;52.424;10.840;2023-03-23T22:07:34;3.65;;;3.13;;
64868;SDS011;51349;52.424;10.840;2023-03-23T22:12:38;4.72;;;4.32;;
64868;SDS011;51349;52.424;10.840;2023-03-23T22:17:39;3.63;;;3.33;;
64868;SDS011;51349;52.424;10.840;2023-03-23T22:22:40;4.45;;;3.55;;
64868;SDS011;51349;52.424;10.840;2023-03-23T22:27:40;3.42;;;3.10;;
64868;SDS011;51349;52.424;10.840;2023-03-23T22:32:41;3.70;;;3.40;;
64868;SDS011;51349;52.424;10.840;2023-03-23T22:37:42;3.20;;;2.90;;
64868;SDS011;51349;52.424;10.840;2023-03-23T22:42:43;3.47;;;3.15;;
64868;SDS011;51349;52.424;10.840;2023-03-23T22:47:43;3.80;;;3.15;;
64868;SDS011;51349;52.424;10.840;2023-03-23T22:52:44;3.67;;;3.38;;
64868;SDS011;51349;52.424;10.840;2023-03-23T22:57:45;4.43;;;4.03;;
64868;SDS011;51349;52.424;10.840;2023-03-23T23:02:45;3.00;;;2.80;;
64868;SDS011;51349;52.424;10.840;2023-03-23T23:07:46;2.80;;;2.60;;
64868;SDS011;51349;52.424;10.840;2023-03-23T23:12:47;3.05;;;2.75;;
64868;SDS011;51349;52.424;10.840;2023-03-23T23:17:48;5.13;;;3.05;;
64868;SDS011;51349;52.424;10.840;2023-03-23T23:22:49;3.03;;;2.72;;
64868;SDS011;51349;52.424;10.840;2023-03-23T23:27:54;3.97;;;2.67;;
64868;SDS011;51349;52.424;10.840;2023-03-23T23:32:57;2.95;;;2.38;;
64868;SDS011;51349;52.424;10.840;2023-03-23T23:37:57;2.38;;;2.17;;
64868;SDS011;51349;52.424;10.840;2023-03-23T23:42:58;2.38;;;2.05;;
64868;SDS011;51349;52.424;10.840;2023-03-23T23:47:59;2.83;;;2.20;;
64868;SDS011;51349;52.424;10.840;2023-03-23T23:52:59;3.30;;;2.53;;
64868;SDS011;51349;52.424;10.840;2023-03-23T23:58:00;2.65;;;2.20;;
